createdAt,value
2018-04-10T00:01:08.093Z,62.14
2018-04-10T00:03:35.759Z,62.05
2018-04-10T00:06:03.377Z,62.27
2018-04-10T00:08:30.985Z,62.10
2018-04-10T00:10:58.637Z,62.14
2018-04-10T00:13:26.246Z,61.89
2018-04-10T00:15:53.906Z,62.88
2018-04-10T00:18:21.549Z,62.92
2018-04-10T00:20:49.201Z,63.25
2018-04-10T00:23:16.870Z,62.94
2018-04-10T00:25:44.520Z,62.78
2018-04-10T00:28:12.166Z,62.96
2018-04-10T00:30:39.833Z,62.93
2018-04-10T00:33:07.457Z,62.78
2018-04-10T00:35:35.155Z,62.58
2018-04-10T00:38:02.766Z,62.91
2018-04-10T00:40:30.437Z,63.29
2018-04-10T00:42:58.053Z,62.79
2018-04-10T00:45:27.657Z,62.95
2018-04-10T00:47:55.310Z,62.70
2018-04-10T00:50:22.982Z,62.91
2018-04-10T00:52:50.683Z,63.20
2018-04-10T00:55:18.305Z,63.56
2018-04-10T00:57:45.969Z,63.93
2018-04-10T01:00:13.618Z,64.77
2018-04-10T01:02:41.265Z,65.04
2018-04-10T01:05:08.899Z,65.01
2018-04-10T01:07:36.550Z,64.63
2018-04-10T01:10:04.179Z,64.85
2018-04-10T01:12:31.850Z,65.26
2018-04-10T01:14:59.510Z,65.15
2018-04-10T01:17:27.192Z,64.66
2018-04-10T01:19:54.814Z,65.10
2018-04-10T01:22:22.483Z,65.34
2018-04-10T01:24:50.118Z,65.54
2018-04-10T01:27:17.777Z,65.66
2018-04-10T01:29:45.410Z,66.05
2018-04-10T01:32:13.066Z,67.69
2018-04-10T01:34:40.688Z,67.87
2018-04-10T01:37:08.354Z,67.50
2018-04-10T01:39:35.984Z,67.17
2018-04-10T01:42:03.650Z,66.58
2018-04-10T01:44:31.269Z,66.26
2018-04-10T01:46:58.904Z,66.38
2018-04-10T01:49:26.570Z,66.24
2018-04-10T01:51:54.181Z,66.48
2018-04-10T01:54:21.851Z,66.31
2018-04-10T01:56:49.459Z,66.31
2018-04-10T01:59:17.108Z,67.61
2018-04-10T02:01:44.749Z,67.21
2018-04-10T02:04:12.402Z,67.76
2018-04-10T02:06:40.018Z,69.90
2018-04-10T02:09:07.730Z,69.84
2018-04-10T02:11:35.350Z,69.69
2018-04-10T02:14:03.039Z,69.20
2018-04-10T02:16:30.694Z,69.82
2018-04-10T02:18:58.357Z,70.77
2018-04-10T02:21:25.977Z,70.43
2018-04-10T02:23:53.682Z,70.07
2018-04-10T02:26:21.321Z,70.51
2018-04-10T02:28:48.994Z,70.40
2018-04-10T02:31:16.678Z,70.56
2018-04-10T02:33:44.297Z,70.53
2018-04-10T02:36:11.961Z,70.63
2018-04-10T02:38:39.626Z,70.08
2018-04-10T02:41:07.260Z,69.84
2018-04-10T02:43:34.939Z,69.58
2018-04-10T02:46:02.578Z,68.98
2018-04-10T02:48:30.282Z,70.72
2018-04-10T02:50:57.938Z,70.64
2018-04-10T02:53:25.598Z,69.94
2018-04-10T02:55:53.222Z,69.63
2018-04-10T02:58:20.918Z,69.29
2018-04-10T03:00:48.546Z,69.59
2018-04-10T03:03:16.227Z,69.69
2018-04-10T03:05:43.870Z,69.21
2018-04-10T03:08:11.545Z,69.24
2018-04-10T03:10:39.167Z,69.35
2018-04-10T03:13:06.841Z,69.61
2018-04-10T03:15:34.480Z,69.41
2018-04-10T03:18:02.129Z,69.17
2018-04-10T03:20:29.745Z,68.42
2018-04-10T03:22:57.431Z,68.72
2018-04-10T03:25:25.090Z,70.00
2018-04-10T03:27:52.794Z,69.18
2018-04-10T03:30:20.426Z,68.93
2018-04-10T03:32:48.093Z,69.03
2018-04-10T03:35:15.747Z,69.09
2018-04-10T03:37:43.410Z,68.94
2018-04-10T03:40:11.074Z,68.62
2018-04-10T03:42:38.694Z,68.59
2018-04-10T03:45:06.378Z,69.15
2018-04-10T03:47:33.982Z,69.57
2018-04-10T03:50:01.675Z,69.29
2018-04-10T03:52:29.339Z,69.70
2018-04-10T03:54:56.991Z,69.72
2018-04-10T03:57:24.618Z,70.09
2018-04-10T03:59:52.282Z,70.16
2018-04-10T04:02:19.899Z,70.50
2018-04-10T04:04:47.578Z,69.78
2018-04-10T04:07:15.202Z,69.62
2018-04-10T04:09:42.856Z,69.84
2018-04-10T04:12:10.502Z,70.05
2018-04-10T04:14:38.159Z,70.49
2018-04-10T04:17:17.557Z,70.89
2018-04-10T04:19:56.914Z,70.68
2018-04-10T04:22:36.298Z,70.34
2018-04-10T04:25:03.955Z,70.56
2018-04-10T04:27:31.588Z,70.35
2018-04-10T04:29:59.310Z,70.25
2018-04-10T04:32:26.958Z,71.11
2018-04-10T04:34:54.617Z,71.07
2018-04-10T04:37:22.238Z,71.47
2018-04-10T04:39:49.912Z,71.62
2018-04-10T04:42:17.582Z,71.36
2018-04-10T04:44:45.250Z,71.66
2018-04-10T04:47:12.871Z,71.17
2018-04-10T04:49:40.541Z,71.02
2018-04-10T04:52:08.177Z,70.91
2018-04-10T04:54:35.823Z,71.76
2018-04-10T04:57:03.437Z,71.68
2018-04-10T04:59:31.093Z,71.66
2018-04-10T05:01:58.730Z,71.52
2018-04-10T05:04:26.396Z,72.17
2018-04-10T05:06:54.037Z,71.62
2018-04-10T05:09:21.698Z,71.09
2018-04-10T05:11:49.316Z,70.77
2018-04-10T05:14:16.967Z,70.34
2018-04-10T05:16:44.590Z,70.47
2018-04-10T05:19:12.270Z,70.60
2018-04-10T05:21:39.906Z,70.30
2018-04-10T05:24:07.565Z,70.03
2018-04-10T05:26:35.195Z,70.19
2018-04-10T05:29:02.845Z,69.98
2018-04-10T05:31:30.486Z,69.95
2018-04-10T05:33:58.155Z,69.73
2018-04-10T05:36:25.762Z,70.01
2018-04-10T05:38:53.419Z,69.97
2018-04-10T05:41:21.050Z,70.89
2018-04-10T05:43:48.720Z,71.29
2018-04-10T05:46:16.341Z,71.12
2018-04-10T05:48:44.029Z,71.09
2018-04-10T05:51:11.645Z,71.01
2018-04-10T05:53:39.354Z,70.24
2018-04-10T05:56:06.978Z,70.59
2018-04-10T05:58:34.599Z,70.83
2018-04-10T06:01:02.337Z,71.48
2018-04-10T06:03:29.945Z,71.97
2018-04-10T06:05:57.611Z,70.99
2018-04-10T06:08:25.275Z,70.02
2018-04-10T06:10:52.974Z,69.79
2018-04-10T06:13:20.594Z,69.32
2018-04-10T06:15:48.304Z,69.17
2018-04-10T06:18:15.932Z,68.78
2018-04-10T06:20:43.602Z,68.48
2018-04-10T06:23:11.254Z,68.46
2018-04-10T06:25:38.918Z,67.72
2018-04-10T06:28:06.549Z,67.62
2018-04-10T06:30:34.202Z,67.83
2018-04-10T06:33:01.831Z,67.76
2018-04-10T06:35:29.541Z,67.78
2018-04-10T06:37:57.202Z,69.09
2018-04-10T06:40:24.858Z,69.85
2018-04-10T06:42:52.490Z,69.08
2018-04-10T06:45:20.282Z,68.68
2018-04-10T06:47:47.911Z,68.31
2018-04-10T06:50:15.575Z,67.32
2018-04-10T06:52:43.221Z,66.23
2018-04-10T06:55:10.858Z,65.39
2018-04-10T06:57:38.529Z,65.73
2018-04-10T07:00:06.138Z,65.83
2018-04-10T07:02:33.815Z,65.87
2018-04-10T07:05:01.586Z,64.42
2018-04-10T07:07:29.272Z,63.72
2018-04-10T07:09:56.919Z,63.70
2018-04-10T07:12:24.562Z,65.03
2018-04-10T07:14:52.195Z,64.41
2018-04-10T07:17:19.851Z,63.76
2018-04-10T07:19:47.461Z,62.28
2018-04-10T07:22:15.169Z,62.43
2018-04-10T07:24:42.794Z,62.05
2018-04-10T07:27:10.479Z,61.45
2018-04-10T07:29:38.120Z,64.27
2018-04-10T07:32:05.782Z,63.15
2018-04-10T07:34:33.411Z,62.72
2018-04-10T07:37:01.077Z,63.40
2018-04-10T07:39:28.710Z,63.05
2018-04-10T07:41:56.323Z,62.91
2018-04-10T07:44:24.000Z,62.87
2018-04-10T07:46:51.621Z,63.01
2018-04-10T07:49:19.301Z,63.40
2018-04-10T07:51:46.931Z,64.84
2018-04-10T07:54:14.605Z,65.98
2018-04-10T07:56:42.225Z,65.81
2018-04-10T07:59:09.887Z,65.71
2018-04-10T08:01:37.557Z,66.76
2018-04-10T08:04:05.219Z,68.52
2018-04-10T08:06:33.212Z,67.90
2018-04-10T08:09:00.890Z,68.07
2018-04-10T08:11:28.533Z,67.14
2018-04-10T08:13:56.242Z,67.87
2018-04-10T08:16:23.890Z,68.31
2018-04-10T08:18:51.538Z,66.23
2018-04-10T08:21:19.494Z,66.42
2018-04-10T08:23:47.190Z,65.56
2018-04-10T08:26:14.828Z,65.04
2018-04-10T08:28:42.446Z,64.76
2018-04-10T08:31:10.135Z,65.23
2018-04-10T08:33:37.802Z,65.69
2018-04-10T08:36:05.459Z,65.92
2018-04-10T08:38:33.102Z,63.02
2018-04-10T08:41:00.843Z,62.00
2018-04-10T08:43:28.487Z,61.41
2018-04-10T08:45:56.150Z,60.71
2018-04-10T08:48:23.764Z,59.87
2018-04-10T08:50:51.443Z,60.98
2018-04-10T08:53:19.076Z,62.22
2018-04-10T08:55:46.727Z,61.06
2018-04-10T08:58:14.358Z,62.23
2018-04-10T09:00:42.013Z,62.61
2018-04-10T09:03:09.640Z,63.02
2018-04-10T09:05:37.382Z,62.46
2018-04-10T09:08:05.024Z,62.86
2018-04-10T09:10:32.702Z,62.01
2018-04-10T09:13:00.330Z,61.65
2018-04-10T09:15:28.007Z,61.64
2018-04-10T09:17:55.627Z,61.48
2018-04-10T09:20:23.298Z,60.91
2018-04-10T09:22:50.956Z,60.86
2018-04-10T09:25:18.614Z,60.03
2018-04-10T09:27:46.247Z,58.40
2018-04-10T09:30:13.905Z,58.02
2018-04-10T09:32:41.598Z,56.18
2018-04-10T09:35:09.321Z,55.06
2018-04-10T09:37:36.947Z,53.62
2018-04-10T09:40:04.632Z,53.36
2018-04-10T09:42:32.270Z,53.43
2018-04-10T09:45:00.088Z,53.38
2018-04-10T09:47:27.759Z,53.34
2018-04-10T09:49:55.438Z,53.10
2018-04-10T09:52:23.064Z,51.86
2018-04-10T09:54:50.778Z,49.60
2018-04-10T09:57:18.382Z,48.13
2018-04-10T09:59:46.066Z,46.29
2018-04-10T10:02:13.667Z,46.91
2018-04-10T10:04:41.342Z,46.72
2018-04-10T10:07:08.951Z,46.49
2018-04-10T10:09:36.606Z,45.17
2018-04-10T10:12:04.221Z,44.52
2018-04-10T10:14:31.871Z,43.98
2018-04-10T10:16:59.498Z,42.41
2018-04-10T10:19:27.158Z,41.83
2018-04-10T10:21:54.822Z,39.34
2018-04-10T10:24:22.480Z,38.89
2018-04-10T10:26:50.130Z,39.14
2018-04-10T10:29:17.732Z,38.16
2018-04-10T10:31:45.412Z,38.55
2018-04-10T10:34:13.028Z,36.19
2018-04-10T10:36:40.790Z,34.95
2018-04-10T10:39:08.474Z,36.64
2018-04-10T10:41:36.111Z,36.76
2018-04-10T10:44:03.720Z,32.45
2018-04-10T10:46:31.359Z,33.49
2018-04-10T10:48:58.968Z,31.67
2018-04-10T10:51:26.633Z,31.45
2018-04-10T10:53:54.322Z,30.27
2018-04-10T10:56:21.992Z,30.07
2018-04-10T10:58:49.611Z,30.93
2018-04-10T11:01:17.260Z,31.51
2018-04-10T11:03:44.911Z,30.10
2018-04-10T11:06:12.654Z,28.75
2018-04-10T11:08:40.266Z,27.37
2018-04-10T11:11:07.910Z,27.17
2018-04-10T11:13:35.522Z,26.51
2018-04-10T11:16:03.202Z,27.61
2018-04-10T11:18:30.832Z,27.04
2018-04-10T11:20:58.495Z,28.55
2018-04-10T11:23:26.152Z,29.08
2018-04-10T11:25:53.798Z,27.83
2018-04-10T11:28:21.402Z,27.86
2018-04-10T11:30:49.103Z,29.45
2018-04-10T11:33:16.727Z,28.97
2018-04-10T11:35:44.394Z,27.97
2018-04-10T11:38:12.006Z,28.96
2018-04-10T11:40:39.652Z,28.85
2018-04-10T11:43:07.306Z,28.19
2018-04-10T11:45:35.008Z,28.42
2018-04-10T11:48:02.614Z,27.87
2018-04-10T11:50:30.274Z,26.85
2018-04-10T11:52:57.910Z,27.78
2018-04-10T11:55:25.583Z,27.88
2018-04-10T11:57:53.209Z,28.27
2018-04-10T12:00:20.870Z,29.04
2018-04-10T12:02:48.478Z,29.07
2018-04-10T12:05:16.143Z,26.43
2018-04-10T12:07:43.754Z,27.57
2018-04-10T12:10:11.459Z,26.92
2018-04-10T12:12:39.074Z,28.73
2018-04-10T12:15:06.728Z,28.03
2018-04-10T12:17:34.343Z,27.37
2018-04-10T12:20:01.995Z,26.72
2018-04-10T12:22:29.623Z,27.22
2018-04-10T12:24:57.303Z,26.97
2018-04-10T12:27:24.923Z,28.04
2018-04-10T12:29:52.525Z,28.09
2018-04-10T12:32:20.249Z,28.56
2018-04-10T12:34:47.882Z,29.17
2018-04-10T12:37:15.534Z,28.13
2018-04-10T12:39:43.134Z,28.08
2018-04-10T12:42:10.782Z,29.10
2018-04-10T12:44:38.404Z,29.34
2018-04-10T12:47:06.090Z,28.96
2018-04-10T12:49:33.695Z,29.56
2018-04-10T12:52:01.348Z,29.51
2018-04-10T12:54:28.954Z,29.59
2018-04-10T12:56:56.612Z,28.96
2018-04-10T12:59:24.253Z,28.88
2018-04-10T13:01:51.917Z,28.78
2018-04-10T13:04:19.533Z,29.11
2018-04-10T13:06:47.182Z,29.49
2018-04-10T13:09:14.781Z,29.38
2018-04-10T13:11:42.431Z,28.83
2018-04-10T13:14:10.043Z,28.62
2018-04-10T13:16:37.732Z,28.44
2018-04-10T13:19:05.368Z,28.51
2018-04-10T13:21:33.030Z,29.17
2018-04-10T13:24:00.655Z,29.09
2018-04-10T13:26:28.314Z,28.85
2018-04-10T13:28:55.944Z,28.51
2018-04-10T13:31:23.641Z,29.12
2018-04-10T13:33:51.341Z,27.50
2018-04-10T13:36:19.107Z,26.76
2018-04-10T13:38:46.931Z,26.72
2018-04-10T13:41:15.409Z,26.50
2018-04-10T13:43:43.071Z,26.66
2018-04-10T13:46:10.807Z,26.53
2018-04-10T13:48:38.502Z,27.85
2018-04-10T13:51:06.365Z,27.47
2018-04-10T13:53:34.078Z,27.44
2018-04-10T13:56:01.738Z,27.22
2018-04-10T13:58:29.454Z,27.15
2018-04-10T14:00:57.158Z,27.41
2018-04-10T14:03:24.766Z,28.13
2018-04-10T14:05:52.410Z,27.45
2018-04-10T14:08:20.058Z,27.74
2018-04-10T14:10:47.702Z,28.21
2018-04-10T14:13:15.310Z,28.31
2018-04-10T14:15:42.954Z,28.61
2018-04-10T14:18:10.556Z,29.18
2018-04-10T14:20:38.191Z,29.81
2018-04-10T14:23:05.798Z,30.04
2018-04-10T14:25:33.488Z,30.52
2018-04-10T14:28:01.143Z,30.80
2018-04-10T14:30:28.827Z,31.30
2018-04-10T14:32:56.460Z,31.92
2018-04-10T14:35:24.153Z,31.98
2018-04-10T14:37:51.767Z,32.48
2018-04-10T14:40:19.418Z,31.86
2018-04-10T14:42:47.105Z,32.83
2018-04-10T14:45:14.723Z,33.07
2018-04-10T14:47:42.387Z,32.86
2018-04-10T14:50:10.002Z,33.00
2018-04-10T14:52:37.694Z,32.63
2018-04-10T14:55:05.323Z,32.67
2018-04-10T14:57:33.021Z,32.88
2018-04-10T15:00:00.662Z,33.29
2018-04-10T15:02:28.353Z,32.39
2018-04-10T15:04:55.972Z,32.31
2018-04-10T15:07:23.629Z,32.22
2018-04-10T15:09:51.235Z,32.92
2018-04-10T15:14:01.264Z,32.79
2018-04-10T15:16:29.073Z,33.63
2018-04-10T15:18:56.737Z,34.03
2018-04-10T15:21:24.539Z,33.69
2018-04-10T15:23:52.268Z,34.02
2018-04-10T15:26:20.073Z,33.83
2018-04-10T15:28:47.678Z,34.11
2018-04-10T15:31:15.974Z,34.61
2018-04-10T15:33:43.723Z,34.15
2018-04-10T15:36:11.605Z,34.39
2018-04-10T15:38:39.408Z,34.11
2018-04-10T15:41:07.224Z,34.37
2018-04-10T15:43:35.100Z,34.71
2018-04-10T15:46:02.859Z,34.78
2018-04-10T15:48:30.530Z,34.87
2018-04-10T15:50:58.286Z,34.74
2018-04-10T15:53:26.051Z,34.94
2018-04-10T15:55:53.816Z,35.80
2018-04-10T15:58:21.481Z,36.07
2018-04-10T16:00:49.078Z,35.95
2018-04-10T16:03:16.906Z,36.47
2018-04-10T16:05:44.673Z,36.61
2018-04-10T16:08:12.536Z,36.71
2018-04-10T16:10:40.300Z,36.44
2018-04-10T16:13:08.168Z,36.84
2018-04-10T16:15:35.784Z,37.29
2018-04-10T16:18:03.440Z,37.05
2018-04-10T16:20:31.149Z,37.59
2018-04-10T16:22:58.919Z,37.26
2018-04-10T16:25:26.627Z,37.03
2018-04-10T16:27:54.455Z,37.64
2018-04-10T16:30:22.215Z,39.06
2018-04-10T16:32:49.875Z,39.65
2018-04-10T16:35:17.740Z,39.82
2018-04-10T16:37:45.462Z,40.77
2018-04-10T16:40:13.196Z,41.10
2018-04-10T16:42:40.829Z,40.81
2018-04-10T16:45:08.637Z,40.81
2018-04-10T16:47:36.461Z,41.00
2018-04-10T16:50:04.222Z,40.84
2018-04-10T16:52:31.944Z,41.28
2018-04-10T16:54:59.666Z,41.28
2018-04-10T16:57:27.415Z,41.45
2018-04-10T16:59:55.173Z,41.72
2018-04-10T17:02:23.150Z,41.84
2018-04-10T17:04:51.019Z,41.62
2018-04-10T17:07:18.739Z,41.40
2018-04-10T17:09:46.647Z,41.50
2018-04-10T17:12:14.451Z,42.23
2018-04-10T17:14:42.337Z,42.22
2018-04-10T17:17:10.043Z,42.43
2018-04-10T17:19:37.874Z,42.24
2018-04-10T17:22:05.572Z,43.17
2018-04-10T17:24:33.235Z,43.63
2018-04-10T17:27:00.947Z,44.69
2018-04-10T17:29:28.770Z,46.17
2018-04-10T17:31:56.740Z,46.82
2018-04-10T17:34:24.394Z,47.16
2018-04-10T17:36:52.051Z,47.62
2018-04-10T17:39:19.716Z,47.72
2018-04-10T17:41:47.686Z,47.92
2018-04-10T17:44:15.414Z,48.33
2018-04-10T17:46:43.755Z,48.17
2018-04-10T17:49:11.480Z,48.48
2018-04-10T17:51:39.258Z,48.91
2018-04-10T17:54:07.129Z,48.89
2018-04-10T17:56:34.890Z,48.79
2018-04-10T17:59:02.613Z,48.60
2018-04-10T18:01:30.425Z,48.95
2018-04-10T18:03:58.591Z,48.72
2018-04-10T18:06:26.460Z,48.68
2018-04-10T18:08:54.222Z,48.78
2018-04-10T18:11:22.089Z,48.79
2018-04-10T18:13:49.977Z,48.74
2018-04-10T18:16:17.803Z,48.56
2018-04-10T18:18:45.692Z,49.28
2018-04-10T18:21:13.561Z,49.04
2018-04-10T18:23:41.219Z,49.15
2018-04-10T18:26:09.086Z,49.43
2018-04-10T18:28:36.950Z,49.51
2018-04-10T18:31:04.611Z,49.78
2018-04-10T18:33:32.585Z,49.44
2018-04-10T18:36:00.465Z,49.18
2018-04-10T18:38:28.217Z,49.85
2018-04-10T18:40:55.982Z,49.71
2018-04-10T18:43:23.660Z,48.59
2018-04-10T18:45:51.299Z,48.51
2018-04-10T18:48:18.965Z,48.43
2018-04-10T18:50:46.807Z,48.11
2018-04-10T18:53:14.599Z,47.11
2018-04-10T18:55:44.706Z,47.74
2018-04-10T18:58:12.659Z,47.32
2018-04-10T19:00:40.454Z,47.39
2018-04-10T19:03:08.268Z,47.78
2018-04-10T19:05:36.185Z,47.68
2018-04-10T19:08:04.052Z,47.62
2018-04-10T19:10:31.766Z,47.48
2018-04-10T19:12:59.581Z,48.05
2018-04-10T19:15:27.244Z,48.46
2018-04-10T19:17:54.903Z,48.84
2018-04-10T19:20:22.565Z,48.91
2018-04-10T19:22:50.433Z,49.56
2018-04-10T19:25:18.198Z,49.61
2018-04-10T19:27:45.902Z,48.88
2018-04-10T19:30:13.830Z,48.35
2018-04-10T19:32:41.482Z,47.98
2018-04-10T19:35:11.061Z,48.18
2018-04-10T19:37:39.249Z,48.22
2018-04-10T19:40:10.247Z,47.87
2018-04-10T19:42:37.976Z,48.02
2018-04-10T19:45:06.787Z,47.97
2018-04-10T19:47:34.523Z,47.85
2018-04-10T19:50:02.258Z,48.48
2018-04-10T19:52:30.052Z,48.41
2018-04-10T19:54:57.951Z,48.61
2018-04-10T19:57:26.202Z,48.76
2018-04-10T19:59:54.068Z,49.09
2018-04-10T20:02:23.122Z,50.32
2018-04-10T20:04:51.350Z,52.08
2018-04-10T20:07:20.464Z,54.80
2018-04-10T20:09:49.502Z,56.60
2018-04-10T20:12:18.328Z,56.08
2018-04-10T20:14:47.314Z,56.60
2018-04-10T20:17:15.177Z,56.96
2018-04-10T20:19:43.149Z,57.69
2018-04-10T20:22:11.962Z,59.17
2018-04-10T20:24:39.817Z,59.53
2018-04-10T20:27:07.596Z,62.81
2018-04-10T20:29:35.425Z,64.06
2018-04-10T20:32:03.403Z,66.01
2018-04-10T20:34:31.131Z,67.40
2018-04-10T20:36:59.968Z,66.73
2018-04-10T20:39:27.833Z,68.59
2018-04-10T20:41:55.697Z,70.24
2018-04-10T20:44:23.560Z,71.14
2018-04-10T20:46:51.320Z,74.96
2018-04-10T20:49:19.189Z,75.24
2018-04-10T20:51:47.358Z,79.82
2018-04-10T20:54:15.127Z,81.38
2018-04-10T20:56:42.775Z,79.43
2018-04-10T20:59:10.452Z,80.50
2018-04-10T21:01:38.216Z,80.90
2018-04-10T21:04:06.786Z,84.83
2018-04-10T21:06:34.688Z,86.42
2018-04-10T21:09:02.439Z,86.67
2018-04-10T21:11:30.414Z,83.09
2018-04-10T21:13:58.042Z,85.02
2018-04-10T21:16:25.717Z,86.42
2018-04-10T21:18:53.318Z,84.67
2018-04-10T21:21:20.939Z,84.39
2018-04-10T21:23:48.610Z,82.40
2018-04-10T21:26:16.230Z,84.06
2018-04-10T21:28:43.871Z,85.22
2018-04-10T21:31:11.722Z,84.89
2018-04-10T21:33:39.384Z,85.39
2018-04-10T21:36:06.998Z,84.59
2018-04-10T21:38:34.639Z,84.98
2018-04-10T21:41:02.270Z,83.06
2018-04-10T21:43:30.799Z,84.20
2018-04-10T21:45:58.418Z,86.07
2018-04-10T21:48:26.633Z,85.03
2018-04-10T21:50:54.290Z,83.80
2018-04-10T21:53:21.970Z,84.31
2018-04-10T21:55:49.588Z,81.38
2018-04-10T21:58:17.229Z,81.04
2018-04-10T22:00:44.878Z,81.72
2018-04-10T22:03:12.532Z,83.12
2018-04-10T22:05:40.138Z,80.83
2018-04-10T22:08:07.786Z,80.85
2018-04-10T22:10:35.398Z,79.23
2018-04-10T22:13:03.061Z,80.59
2018-04-10T22:15:30.691Z,79.27
2018-04-10T22:17:58.316Z,80.83
2018-04-10T22:20:25.970Z,81.55
2018-04-10T22:22:53.582Z,80.88
2018-04-10T22:25:21.229Z,80.65
2018-04-10T22:27:48.838Z,81.73
2018-04-10T22:30:16.510Z,83.21
2018-04-10T22:32:44.191Z,83.62
2018-04-10T22:35:11.905Z,79.80
2018-04-10T22:37:39.566Z,83.05
2018-04-10T22:40:07.330Z,81.55
2018-04-10T22:42:35.064Z,82.81
2018-04-10T22:45:02.857Z,81.92
2018-04-10T22:47:30.527Z,82.97
2018-04-10T22:49:58.388Z,83.66
2018-04-10T22:52:26.150Z,81.95
2018-04-10T22:54:53.918Z,81.67
2018-04-10T22:57:21.576Z,84.06
2018-04-10T22:59:49.447Z,84.04
2018-04-10T23:02:17.213Z,83.86
2018-04-10T23:04:44.884Z,82.42
2018-04-10T23:07:12.647Z,82.54
2018-04-10T23:09:40.378Z,83.00
2018-04-10T23:12:08.287Z,81.42
2018-04-10T23:14:36.028Z,81.79
2018-04-10T23:17:03.928Z,80.25
2018-04-10T23:19:31.591Z,77.63
2018-04-10T23:21:59.562Z,78.67
2018-04-10T23:24:27.226Z,78.25
2018-04-10T23:26:55.095Z,79.68
2018-04-10T23:29:22.823Z,80.04
2018-04-10T23:31:50.628Z,80.16
2018-04-10T23:34:18.396Z,80.79
2018-04-10T23:36:46.265Z,81.71
2018-04-10T23:39:14.006Z,78.53
2018-04-10T23:41:41.895Z,78.48
2018-04-10T23:44:09.552Z,79.60
2018-04-10T23:46:37.321Z,79.29
2018-04-10T23:49:05.089Z,81.22
2018-04-10T23:51:32.851Z,80.60
2018-04-10T23:54:00.623Z,81.88
2018-04-10T23:56:28.384Z,82.12
2018-04-10T23:58:56.103Z,82.57
